createdAt,value
2023-05-14T00:01:24.057Z,3.38
2023-05-14T00:03:51.493Z,3.30
2023-05-14T00:06:18.873Z,3.38
2023-05-14T00:08:46.276Z,4.50
2023-05-14T00:11:13.610Z,3.65
2023-05-14T00:13:42.066Z,3.65
2023-05-14T00:16:09.476Z,3.17
2023-05-14T00:18:36.860Z,3.50
2023-05-14T00:21:04.470Z,3.65
2023-05-14T00:23:31.826Z,4.13
2023-05-14T00:25:59.100Z,3.70
2023-05-14T00:28:26.541Z,3.78
2023-05-14T00:30:54.259Z,3.33
2023-05-14T00:33:21.551Z,4.57
2023-05-14T00:35:48.976Z,3.85
2023-05-14T00:38:19.320Z,4.30
2023-05-14T00:40:51.397Z,4.10
2023-05-14T00:43:22.736Z,4.25
2023-05-14T00:45:56.310Z,4.13
2023-05-14T00:48:24.411Z,4.25
2023-05-14T00:50:52.122Z,4.18
2023-05-14T00:53:20.808Z,4.38
2023-05-14T00:55:50.073Z,4.18
2023-05-14T00:58:19.205Z,4.55
2023-05-14T01:00:46.583Z,4.00
2023-05-14T01:03:14.148Z,3.78
2023-05-14T01:06:01.152Z,3.63
2023-05-14T01:08:59.613Z,3.55
2023-05-14T01:11:33.903Z,3.75
2023-05-14T01:14:16.484Z,4.00
2023-05-14T01:16:45.855Z,3.90
2023-05-14T01:19:42.518Z,4.07
2023-05-14T01:22:10.699Z,3.40
2023-05-14T01:24:38.316Z,4.00
2023-05-14T01:27:30.824Z,3.88
2023-05-14T01:30:24.099Z,3.65
2023-05-14T01:33:00.016Z,3.85
2023-05-14T01:35:30.092Z,4.15
2023-05-14T01:38:03.567Z,4.65
2023-05-14T01:40:32.895Z,3.83
2023-05-14T01:43:00.835Z,3.50
2023-05-14T01:45:28.193Z,4.10
2023-05-14T01:47:55.550Z,4.45
2023-05-14T01:50:23.634Z,3.97
2023-05-14T01:52:53.472Z,3.75
2023-05-14T01:55:20.954Z,4.05
2023-05-14T01:57:48.258Z,4.53
2023-05-14T02:00:15.895Z,3.70
2023-05-14T02:02:43.829Z,3.80
2023-05-14T02:05:14.134Z,5.20
2023-05-14T02:07:41.528Z,3.90
2023-05-14T02:10:09.492Z,4.20
2023-05-14T02:12:36.948Z,4.35
2023-05-14T02:15:08.955Z,3.78
2023-05-14T02:17:36.466Z,3.95
2023-05-14T02:20:04.361Z,4.07
2023-05-14T02:22:31.861Z,3.65
2023-05-14T02:24:59.294Z,4.00
2023-05-14T02:27:26.649Z,4.18
2023-05-14T02:29:54.106Z,3.53
2023-05-14T02:32:21.498Z,3.75
2023-05-14T02:34:48.877Z,2.97
2023-05-14T02:37:16.229Z,3.25
2023-05-14T02:39:43.558Z,3.38
2023-05-14T02:42:10.878Z,4.15
2023-05-14T02:44:38.325Z,3.30
2023-05-14T02:47:05.917Z,3.83
2023-05-14T02:49:33.323Z,4.28
2023-05-14T02:52:00.982Z,3.50
2023-05-14T02:54:28.308Z,3.47
2023-05-14T02:56:55.637Z,3.58
2023-05-14T02:59:24.091Z,3.83
2023-05-14T03:01:51.992Z,3.97
2023-05-14T03:04:19.749Z,3.58
2023-05-14T03:06:47.108Z,3.85
2023-05-14T03:09:14.525Z,3.67
2023-05-14T03:11:41.880Z,3.20
2023-05-14T03:14:09.230Z,3.95
2023-05-14T03:16:36.541Z,3.47
2023-05-14T03:19:04.108Z,3.70
2023-05-14T03:21:32.151Z,3.05
2023-05-14T03:23:59.503Z,3.25
2023-05-14T03:26:26.951Z,3.85
2023-05-14T03:28:54.804Z,4.00
2023-05-14T03:31:22.210Z,3.80
2023-05-14T03:33:49.564Z,3.72
2023-05-14T03:36:16.952Z,2.90
2023-05-14T03:38:44.295Z,3.42
2023-05-14T03:41:11.624Z,3.28
2023-05-14T03:43:38.918Z,3.38
2023-05-14T03:46:06.295Z,3.58
2023-05-14T03:48:33.621Z,3.53
2023-05-14T03:51:00.980Z,3.63
2023-05-14T03:53:28.301Z,4.13
2023-05-14T03:55:55.734Z,4.00
2023-05-14T03:58:23.013Z,3.83
2023-05-14T04:00:50.393Z,3.42
2023-05-14T04:03:17.815Z,3.45
2023-05-14T04:05:46.229Z,2.88
2023-05-14T04:08:13.530Z,3.25
2023-05-14T04:10:42.505Z,3.28
2023-05-14T04:13:09.937Z,3.00
2023-05-14T04:15:39.288Z,3.45
2023-05-14T04:18:06.875Z,3.88
2023-05-14T04:20:34.397Z,3.22
2023-05-14T04:23:01.905Z,3.67
2023-05-14T04:25:29.782Z,3.20
2023-05-14T04:27:57.123Z,2.92
2023-05-14T04:30:24.793Z,3.63
2023-05-14T04:32:52.337Z,3.13
2023-05-14T04:35:23.314Z,2.95
2023-05-14T04:37:52.204Z,3.03
2023-05-14T04:40:19.676Z,3.90
2023-05-14T04:42:47.027Z,3.25
2023-05-14T04:45:14.665Z,3.30
2023-05-14T04:47:42.327Z,3.83
2023-05-14T04:50:10.133Z,3.50
2023-05-14T04:52:37.846Z,3.10
2023-05-14T04:55:05.853Z,3.08
2023-05-14T04:57:33.298Z,3.05
2023-05-14T05:00:00.711Z,2.90
2023-05-14T05:02:28.100Z,3.53
2023-05-14T05:04:56.206Z,3.00
2023-05-14T05:07:23.519Z,3.28
2023-05-14T05:09:51.111Z,3.05
2023-05-14T05:12:18.411Z,2.50
2023-05-14T05:14:45.783Z,2.70
2023-05-14T05:17:13.117Z,1.90
2023-05-14T05:19:44.145Z,3.00
2023-05-14T05:22:12.041Z,3.40
2023-05-14T05:24:39.536Z,2.90
2023-05-14T05:27:06.904Z,2.67
2023-05-14T05:29:34.887Z,2.85
2023-05-14T05:32:02.285Z,2.90
2023-05-14T05:34:29.786Z,3.30
2023-05-14T05:36:57.163Z,3.08
2023-05-14T05:39:25.150Z,2.75
2023-05-14T05:41:52.518Z,2.72
2023-05-14T05:44:19.817Z,2.58
2023-05-14T05:46:47.234Z,3.15
2023-05-14T05:49:14.600Z,3.28
2023-05-14T05:51:41.871Z,2.88
2023-05-14T05:54:09.293Z,2.97
2023-05-14T05:56:36.645Z,2.67
2023-05-14T05:59:04.085Z,2.42
2023-05-14T06:01:31.433Z,2.97
2023-05-14T06:03:58.793Z,2.47
2023-05-14T06:06:26.109Z,3.10
2023-05-14T06:08:53.445Z,3.20
2023-05-14T06:11:21.899Z,2.97
2023-05-14T06:13:49.422Z,3.20
2023-05-14T06:16:16.803Z,2.10
2023-05-14T06:18:44.251Z,3.17
2023-05-14T06:21:11.763Z,3.75
2023-05-14T06:23:39.094Z,3.78
2023-05-14T06:26:06.417Z,3.30
2023-05-14T06:28:33.797Z,2.83
2023-05-14T06:31:01.175Z,3.05
2023-05-14T06:33:31.449Z,1.98
2023-05-14T06:36:00.985Z,2.55
2023-05-14T06:38:28.476Z,2.75
2023-05-14T06:40:55.869Z,3.10
2023-05-14T06:43:23.433Z,3.97
2023-05-14T06:45:53.423Z,3.33
2023-05-14T06:48:21.473Z,3.88
2023-05-14T06:50:50.017Z,3.78
2023-05-14T06:53:17.533Z,3.30
2023-05-14T06:55:47.261Z,3.42
2023-05-14T06:58:14.815Z,3.08
2023-05-14T07:00:42.585Z,2.97
2023-05-14T07:03:11.596Z,3.85
2023-05-14T07:05:40.817Z,2.45
2023-05-14T07:08:08.190Z,2.88
2023-05-14T07:10:35.533Z,3.70
2023-05-14T07:13:03.571Z,3.30
2023-05-14T07:15:31.084Z,3.72
2023-05-14T07:17:58.501Z,3.58
2023-05-14T07:20:26.199Z,2.95
2023-05-14T07:22:53.988Z,2.45
2023-05-14T07:25:21.307Z,3.47
2023-05-14T07:27:48.673Z,3.10
2023-05-14T07:30:16.175Z,4.65
2023-05-14T07:32:43.939Z,4.03
2023-05-14T07:35:11.872Z,3.13
2023-05-14T07:37:39.566Z,4.28
2023-05-14T07:40:07.455Z,3.60
2023-05-14T07:42:36.959Z,3.15
2023-05-14T07:45:05.644Z,3.38
2023-05-14T07:47:33.211Z,3.05
2023-05-14T07:50:00.746Z,3.67
2023-05-14T07:52:28.127Z,3.28
2023-05-14T07:54:55.433Z,3.15
2023-05-14T07:57:22.779Z,3.47
2023-05-14T07:59:50.443Z,1.63
2023-05-14T08:02:17.853Z,3.80
2023-05-14T08:04:45.660Z,3.97
2023-05-14T08:07:13.207Z,3.63
2023-05-14T08:09:40.711Z,3.80
2023-05-14T08:12:08.577Z,3.03
2023-05-14T08:14:36.092Z,3.85
2023-05-14T08:17:03.795Z,3.60
2023-05-14T08:19:31.269Z,3.72
2023-05-14T08:21:58.659Z,3.47
2023-05-14T08:24:26.315Z,2.65
2023-05-14T08:26:53.700Z,3.97
2023-05-14T08:29:21.594Z,3.78
2023-05-14T08:31:51.327Z,3.78
2023-05-14T08:34:18.713Z,3.58
2023-05-14T08:36:46.360Z,3.40
2023-05-14T08:39:13.844Z,3.17
2023-05-14T08:41:41.542Z,3.22
2023-05-14T08:44:12.859Z,3.83
2023-05-14T08:46:41.151Z,3.30
2023-05-14T08:49:30.133Z,3.15
2023-05-14T08:51:57.574Z,3.47
2023-05-14T08:54:27.061Z,2.80
2023-05-14T08:56:54.519Z,3.25
2023-05-14T08:59:21.907Z,3.13
2023-05-14T09:01:53.881Z,2.72
2023-05-14T09:04:23.283Z,2.42
2023-05-14T09:06:53.645Z,3.35
2023-05-14T09:09:24.296Z,3.72
2023-05-14T09:11:53.332Z,3.25
2023-05-14T09:14:22.247Z,2.90
2023-05-14T09:16:51.692Z,3.58
2023-05-14T09:19:20.515Z,3.22
2023-05-14T09:21:49.661Z,3.80
2023-05-14T09:24:24.833Z,3.88
2023-05-14T09:26:55.005Z,3.35
2023-05-14T09:29:28.815Z,3.60
2023-05-14T09:31:57.748Z,3.60
2023-05-14T09:34:32.655Z,3.30
2023-05-14T09:37:02.360Z,3.40
2023-05-14T09:39:30.845Z,3.45
2023-05-14T09:41:58.480Z,3.13
2023-05-14T09:44:26.049Z,4.00
2023-05-14T09:46:54.403Z,2.65
2023-05-14T09:49:22.367Z,3.53
2023-05-14T09:51:50.743Z,3.65
2023-05-14T09:54:18.290Z,3.83
2023-05-14T09:56:45.778Z,3.78
2023-05-14T09:59:13.208Z,3.70
2023-05-14T10:01:44.228Z,3.38
2023-05-14T10:04:12.690Z,3.70
2023-05-14T10:06:43.461Z,4.43
2023-05-14T10:09:16.870Z,3.97
2023-05-14T10:11:50.212Z,3.95
2023-05-14T10:14:38.687Z,3.65
2023-05-14T10:17:07.775Z,3.95
2023-05-14T10:19:36.399Z,3.47
2023-05-14T10:22:07.107Z,3.92
2023-05-14T10:24:35.949Z,3.90
2023-05-14T10:27:03.957Z,3.55
2023-05-14T10:29:39.443Z,3.78
2023-05-14T10:32:08.582Z,3.95
2023-05-14T10:34:46.182Z,3.70
2023-05-14T10:37:16.724Z,3.80
2023-05-14T10:39:50.004Z,3.63
2023-05-14T10:42:24.805Z,3.72
2023-05-14T10:44:58.729Z,3.50
2023-05-14T10:47:33.690Z,3.40
2023-05-14T10:50:04.731Z,3.70
2023-05-14T10:52:32.306Z,3.83
2023-05-14T10:55:03.483Z,3.95
2023-05-14T10:57:32.725Z,3.90
2023-05-14T11:00:07.145Z,3.95
2023-05-14T11:02:39.355Z,3.60
2023-05-14T11:05:10.544Z,3.72
2023-05-14T11:07:43.448Z,1.95
2023-05-14T11:10:13.458Z,3.80
2023-05-14T11:12:45.456Z,3.65
2023-05-14T11:15:14.866Z,4.68
2023-05-14T11:17:43.519Z,4.10
2023-05-14T11:20:12.157Z,3.38
2023-05-14T11:22:41.123Z,3.58
2023-05-14T11:25:10.320Z,3.90
2023-05-14T11:27:39.208Z,4.53
2023-05-14T11:30:17.193Z,3.72
2023-05-14T11:32:46.836Z,4.63
2023-05-14T11:35:15.297Z,4.40
2023-05-14T11:37:43.417Z,3.75
2023-05-14T11:40:18.855Z,3.97
2023-05-14T11:42:46.528Z,3.78
2023-05-14T11:45:24.272Z,3.95
2023-05-14T11:47:52.538Z,3.78
2023-05-14T11:50:21.117Z,3.85
2023-05-14T11:52:50.797Z,3.92
2023-05-14T11:55:18.380Z,4.28
2023-05-14T11:57:45.765Z,3.10
2023-05-14T12:00:14.602Z,3.70
2023-05-14T12:02:42.218Z,3.88
2023-05-14T12:05:12.729Z,4.03
2023-05-14T12:07:40.601Z,3.40
2023-05-14T12:10:08.543Z,4.15
2023-05-14T12:12:39.982Z,3.38
2023-05-14T12:15:14.812Z,3.45
2023-05-14T12:17:42.531Z,4.47
2023-05-14T12:20:11.356Z,4.13
2023-05-14T12:22:39.492Z,4.55
2023-05-14T12:25:16.209Z,3.83
2023-05-14T12:27:45.498Z,3.97
2023-05-14T12:30:21.382Z,4.57
2023-05-14T12:32:51.972Z,4.25
2023-05-14T12:35:20.664Z,3.78
2023-05-14T12:37:48.015Z,3.35
2023-05-14T12:40:15.407Z,3.05
2023-05-14T12:42:42.865Z,4.32
2023-05-14T12:45:10.628Z,3.80
2023-05-14T12:47:38.113Z,4.07
2023-05-14T12:50:06.298Z,3.50
2023-05-14T12:52:38.451Z,3.80
2023-05-14T12:55:10.101Z,3.90
2023-05-14T12:57:39.088Z,3.92
2023-05-14T13:00:08.603Z,3.92
2023-05-14T13:02:42.668Z,3.20
2023-05-14T13:05:12.601Z,4.40
2023-05-14T13:07:40.123Z,3.85
2023-05-14T13:10:08.295Z,3.78
2023-05-14T13:12:35.720Z,3.13
2023-05-14T13:15:03.101Z,3.83
2023-05-14T13:17:30.533Z,3.25
2023-05-14T13:19:58.113Z,3.72
2023-05-14T13:22:25.387Z,3.53
2023-05-14T13:24:52.713Z,3.72
2023-05-14T13:27:20.151Z,3.13
2023-05-14T13:29:47.491Z,3.10
2023-05-14T13:32:14.832Z,4.47
2023-05-14T13:34:43.982Z,3.78
2023-05-14T13:37:11.404Z,2.88
2023-05-14T13:39:39.837Z,3.45
2023-05-14T13:42:08.426Z,3.65
2023-05-14T13:44:36.259Z,2.42
2023-05-14T13:47:04.527Z,3.63
2023-05-14T13:49:31.974Z,3.05
2023-05-14T13:51:59.291Z,3.97
2023-05-14T13:54:26.688Z,4.07
2023-05-14T13:56:54.037Z,2.58
2023-05-14T13:59:21.628Z,3.03
2023-05-14T14:01:50.150Z,3.17
2023-05-14T14:04:17.761Z,2.97
2023-05-14T14:06:45.112Z,3.05
2023-05-14T14:09:13.780Z,3.78
2023-05-14T14:11:41.657Z,4.00
2023-05-14T14:14:08.969Z,3.35
2023-05-14T14:16:36.431Z,2.30
2023-05-14T14:19:03.855Z,2.50
2023-05-14T14:21:31.828Z,3.65
2023-05-14T14:23:59.381Z,3.75
2023-05-14T14:26:27.994Z,3.20
2023-05-14T14:28:55.558Z,3.38
2023-05-14T14:31:23.022Z,2.47
2023-05-14T14:33:50.600Z,3.10
2023-05-14T14:36:17.908Z,2.05
2023-05-14T14:38:45.350Z,2.95
2023-05-14T14:41:12.753Z,2.28
2023-05-14T14:43:41.143Z,2.85
2023-05-14T14:46:09.207Z,3.15
2023-05-14T14:48:41.253Z,2.67
2023-05-14T14:51:09.622Z,3.25
2023-05-14T14:53:37.473Z,3.45
2023-05-14T14:56:05.140Z,2.15
2023-05-14T14:58:32.716Z,1.92
2023-05-14T15:01:01.541Z,2.67
2023-05-14T15:03:29.313Z,3.58
2023-05-14T15:05:56.950Z,4.80
2023-05-14T15:08:30.201Z,3.30
2023-05-14T15:10:57.850Z,3.45
2023-05-14T15:13:25.802Z,2.65
2023-05-14T15:15:53.309Z,2.88
2023-05-14T15:18:21.809Z,2.88
2023-05-14T15:20:49.680Z,3.58
2023-05-14T15:23:17.032Z,2.20
2023-05-14T15:25:44.685Z,3.17
2023-05-14T15:28:12.031Z,3.05
2023-05-14T15:30:39.523Z,2.47
2023-05-14T15:33:08.827Z,2.40
2023-05-14T15:35:36.705Z,3.00
2023-05-14T15:38:04.420Z,2.22
2023-05-14T15:40:33.136Z,3.45
2023-05-14T15:43:00.568Z,3.55
2023-05-14T15:45:28.253Z,2.85
2023-05-14T15:47:55.626Z,2.28
2023-05-14T15:50:23.351Z,3.03
2023-05-14T15:52:51.296Z,2.95
2023-05-14T15:55:18.778Z,1.90
2023-05-14T15:57:46.320Z,1.85
2023-05-14T16:00:14.437Z,2.20
2023-05-14T16:02:42.016Z,2.97
2023-05-14T16:05:09.730Z,2.58
2023-05-14T16:07:37.526Z,2.60
2023-05-14T16:10:06.059Z,2.92
2023-05-14T16:12:33.596Z,2.88
2023-05-14T16:15:01.173Z,3.00
2023-05-14T16:17:30.493Z,2.13
2023-05-14T16:19:57.950Z,2.33
2023-05-14T16:22:25.312Z,2.10
2023-05-14T16:24:52.866Z,2.22
2023-05-14T16:27:20.567Z,2.38
2023-05-14T16:29:47.993Z,2.85
2023-05-14T16:32:15.390Z,1.92
2023-05-14T16:34:49.543Z,2.40
2023-05-14T16:37:17.666Z,1.55
2023-05-14T16:39:44.974Z,2.78
2023-05-14T16:42:12.413Z,2.40
2023-05-14T16:44:40.125Z,2.85
2023-05-14T16:47:07.430Z,2.33
2023-05-14T16:52:06.537Z,1.92
2023-05-14T16:54:33.650Z,2.17
2023-05-14T16:57:27.940Z,1.70
2023-05-14T16:59:54.953Z,2.63
2023-05-14T17:02:22.070Z,1.73
2023-05-14T17:04:49.154Z,1.60
2023-05-14T17:07:16.303Z,1.27
2023-05-14T17:09:43.290Z,2.03
2023-05-14T17:12:11.238Z,2.22
2023-05-14T17:14:38.177Z,1.10
2023-05-14T17:17:05.270Z,1.70
2023-05-14T17:19:32.198Z,2.60
2023-05-14T17:21:59.336Z,2.13
2023-05-14T17:24:26.274Z,1.88
2023-05-14T17:26:53.320Z,2.15
2023-05-14T17:29:20.360Z,2.90
2023-05-14T17:31:48.379Z,2.25
2023-05-14T17:34:15.393Z,3.13
2023-05-14T17:36:42.419Z,2.63
2023-05-14T17:39:09.567Z,2.53
2023-05-14T17:41:36.487Z,2.60
2023-05-14T17:44:03.515Z,2.00
2023-05-14T17:46:30.816Z,2.58
2023-05-14T17:48:58.356Z,2.00
2023-05-14T17:51:25.537Z,2.03
2023-05-14T17:53:52.713Z,2.75
2023-05-14T17:56:20.370Z,1.58
2023-05-14T17:58:47.609Z,1.92
2023-05-14T18:01:14.645Z,2.42
2023-05-14T18:03:42.412Z,1.20
2023-05-14T18:06:09.701Z,1.88
2023-05-14T18:08:36.722Z,2.42
2023-05-14T18:11:03.703Z,2.83
2023-05-14T18:13:30.653Z,2.17
2023-05-14T18:15:57.808Z,2.33
2023-05-14T18:18:25.008Z,2.13
2023-05-14T18:20:52.624Z,2.20
2023-05-14T18:23:19.628Z,2.15
2023-05-14T18:25:47.943Z,2.60
2023-05-14T18:28:15.616Z,1.92
2023-05-14T18:30:43.651Z,2.65
2023-05-14T18:33:10.780Z,2.47
2023-05-14T18:35:37.908Z,1.05
2023-05-14T18:38:04.883Z,1.70
2023-05-14T18:40:31.832Z,2.85
2023-05-14T18:42:58.843Z,2.22
2023-05-14T18:45:26.026Z,1.65
2023-05-14T18:47:53.321Z,2.05
2023-05-14T18:50:20.392Z,2.20
2023-05-14T18:52:47.707Z,1.77
2023-05-14T18:55:14.827Z,2.53
2023-05-14T18:57:41.921Z,1.73
2023-05-14T19:00:09.764Z,1.77
2023-05-14T19:02:36.805Z,2.20
2023-05-14T19:05:03.987Z,1.63
2023-05-14T19:07:31.543Z,2.13
2023-05-14T19:09:58.520Z,1.85
2023-05-14T19:12:26.589Z,1.45
2023-05-14T19:14:53.537Z,1.65
2023-05-14T19:17:20.743Z,2.28
2023-05-14T19:19:47.769Z,2.45
2023-05-14T19:22:14.783Z,2.17
2023-05-14T19:24:41.804Z,2.03
2023-05-14T19:27:09.174Z,1.77
2023-05-14T19:29:39.565Z,2.17
2023-05-14T19:32:07.324Z,2.10
2023-05-14T19:34:34.284Z,2.38
2023-05-14T19:37:01.304Z,1.98
2023-05-14T19:39:28.307Z,1.75
2023-05-14T19:41:55.373Z,2.15
2023-05-14T19:44:22.359Z,1.75
2023-05-14T19:46:49.511Z,2.10
2023-05-14T19:49:16.611Z,1.73
2023-05-14T19:51:43.750Z,2.13
2023-05-14T19:54:10.704Z,1.98
2023-05-14T19:56:38.391Z,2.10
2023-05-14T19:59:05.379Z,2.47
2023-05-14T20:01:34.221Z,2.38
2023-05-14T20:04:02.264Z,1.98
2023-05-14T20:06:29.332Z,2.15
2023-05-14T20:08:56.465Z,2.05
2023-05-14T20:11:23.415Z,1.48
2023-05-14T20:13:50.487Z,2.25
2023-05-14T20:16:17.591Z,2.20
2023-05-14T20:18:45.060Z,1.77
2023-05-14T20:21:12.272Z,2.65
2023-05-14T20:23:39.285Z,2.60
2023-05-14T20:26:06.331Z,2.10
2023-05-14T20:28:33.360Z,2.20
2023-05-14T20:31:01.166Z,2.05
2023-05-14T20:33:29.149Z,2.40
2023-05-14T20:35:56.609Z,2.65
2023-05-14T20:38:25.741Z,2.38
2023-05-14T20:40:52.717Z,2.22
2023-05-14T20:43:19.662Z,2.30
2023-05-14T20:45:46.701Z,2.60
2023-05-14T20:48:16.417Z,2.60
2023-05-14T20:50:44.284Z,1.85
2023-05-14T20:53:11.256Z,1.83
2023-05-14T20:55:39.321Z,2.53
2023-05-14T20:58:06.304Z,2.53
2023-05-14T21:00:33.310Z,2.20
2023-05-14T21:03:00.649Z,2.35
2023-05-14T21:05:28.068Z,1.92
2023-05-14T21:07:55.198Z,2.38
2023-05-14T21:10:22.465Z,2.58
2023-05-14T21:12:49.778Z,2.40
2023-05-14T21:15:16.824Z,2.33
2023-05-14T21:17:43.841Z,2.00
2023-05-14T21:20:13.438Z,2.45
2023-05-14T21:22:40.455Z,2.40
2023-05-14T21:25:07.991Z,2.45
2023-05-14T21:27:35.048Z,2.33
2023-05-14T21:30:02.217Z,2.85
2023-05-14T21:32:29.141Z,2.83
2023-05-14T21:34:56.304Z,2.80
2023-05-14T21:37:23.468Z,2.53
2023-05-14T21:39:50.938Z,2.72
2023-05-14T21:42:20.928Z,2.33
2023-05-14T21:44:48.002Z,2.45
2023-05-14T21:47:16.125Z,2.08
2023-05-14T21:49:43.398Z,2.50
2023-05-14T21:52:10.868Z,2.13
2023-05-14T21:54:37.868Z,2.58
2023-05-14T21:57:05.375Z,2.10
2023-05-14T21:59:33.982Z,2.83
2023-05-14T22:04:30.841Z,2.40
2023-05-14T22:06:57.932Z,2.88
2023-05-14T22:09:24.914Z,2.88
2023-05-14T22:11:51.946Z,2.33
2023-05-14T22:14:19.003Z,2.30
2023-05-14T22:16:46.155Z,2.72
2023-05-14T22:19:13.376Z,2.95
2023-05-14T22:21:40.496Z,2.40
2023-05-14T22:24:07.733Z,2.90
2023-05-14T22:26:35.474Z,2.63
2023-05-14T22:29:02.432Z,2.33
2023-05-14T22:31:30.018Z,1.85
2023-05-14T22:33:57.069Z,3.00
2023-05-14T22:36:24.010Z,3.25
2023-05-14T22:38:50.958Z,2.63
2023-05-14T22:41:17.924Z,3.05
2023-05-14T22:43:44.973Z,2.97
2023-05-14T22:46:12.156Z,3.08
2023-05-14T22:48:39.209Z,3.55
2023-05-14T22:51:06.182Z,2.63
2023-05-14T22:53:33.227Z,3.20
2023-05-14T22:56:00.396Z,2.80
2023-05-14T22:58:27.502Z,2.65
2023-05-14T23:00:54.477Z,2.83
2023-05-14T23:03:21.505Z,3.38
2023-05-14T23:05:48.504Z,3.15
2023-05-14T23:08:15.560Z,3.28
2023-05-14T23:10:42.538Z,2.78
2023-05-14T23:13:09.678Z,2.28
2023-05-14T23:15:36.732Z,3.13
2023-05-14T23:18:03.956Z,3.35
2023-05-14T23:20:31.002Z,3.13
2023-05-14T23:22:57.962Z,2.78
2023-05-14T23:25:25.193Z,3.08
2023-05-14T23:27:52.513Z,3.15
2023-05-14T23:30:19.668Z,3.38
2023-05-14T23:32:46.601Z,3.42
2023-05-14T23:35:13.764Z,2.88
2023-05-14T23:37:47.040Z,3.50
2023-05-14T23:40:15.634Z,3.22
2023-05-14T23:42:43.496Z,3.13
2023-05-14T23:45:12.083Z,3.30
2023-05-14T23:47:39.517Z,3.15
2023-05-14T23:50:07.048Z,3.13
2023-05-14T23:52:34.108Z,3.20
2023-05-14T23:55:01.175Z,3.05
2023-05-14T23:57:28.361Z,3.45
2023-05-14T23:59:55.401Z,3.13
